PWSweather.com
Personal Weather Stations
Station Observations
STWO1
East Side, Stillwater, OK 74075

East SideStillwater, OK 74075

Lat: 36.1242949, Lon: -97.044042

Elevation: 942

Station Type: Davis VP2

http://stillwaterweather.com

Latest ConditionsUpdated 3:20:01 AM CDT Monday, Aug 26, 2019
Currently Today's Max Today's Min Today's Average
Temperature 74.6°F23.7°C 75.9°F24.4°C 74.3°F23.5°C 74.8°F23.8°C
Dew Point 71.8°F22.1°C 72.4°F22.4°C 71.5°F21.9°C 71.8°F22.1°C
Winds 3.5 mph ESE5.6 kmh ESE 4.6 mph -7.4 kmh - - 3.1 mph 5.0 kmh
Wind Gusts 3.5 mph5.6 kmh 8.1 mph13.0 kmh - -
Humidity 91% 92% 89% 90%
Pressure 29.74 in1007.1 mb 29.77 in1008.1 mb 29.73 in1006.8 mb -
Hour Temp Dew Point Humidity Winds Wind Gusts Pressure Precip Precip Rate Daily Precip Total
03:20 AM 74.6°F23.7°C 71.8°F22.1°C 91% 3.5 mph ESE5.6 kmh ESE 3.5 mph5.6 kmh 29.74 in1007.1 mb - 0.00 in0.0 mm 0.00 in0.0 mm
03:10 AM 74.3°F23.5°C 71.9°F22.2°C 92% 3.5 mph SE5.6 kmh SE 3.5 mph5.6 kmh 29.74 in1007.1 mb - 0.00 in0.0 mm 0.00 in0.0 mm
03:00 AM 74.4°F23.6°C 71.6°F22.0°C 91% 3.5 mph SE5.6 kmh SE 6.9 mph11.1 kmh 29.74 in1007.1 mb - 0.00 in0.0 mm 0.00 in0.0 mm
02:50 AM 74.3°F23.5°C 71.5°F21.9°C 91% 3.5 mph SE5.6 kmh SE 5.8 mph9.3 kmh 29.74 in1007.1 mb - 0.00 in0.0 mm 0.00 in0.0 mm
02:40 AM 74.3°F23.5°C 71.5°F21.9°C 91% 4.6 mph SE7.4 kmh SE 4.6 mph7.4 kmh 29.73 in1006.8 mb - 0.00 in0.0 mm 0.00 in0.0 mm
02:30 AM 74.3°F23.5°C 71.5°F21.9°C 91% 3.5 mph SE5.6 kmh SE 4.6 mph7.4 kmh 29.74 in1007.1 mb - 0.00 in0.0 mm 0.00 in0.0 mm
02:20 AM 74.3°F23.5°C 71.5°F21.9°C 91% 2.3 mph SE3.7 kmh SE 4.6 mph7.4 kmh 29.75 in1007.5 mb - 0.00 in0.0 mm 0.00 in0.0 mm
02:10 AM 74.3°F23.5°C 71.5°F21.9°C 91% 2.3 mph ESE3.7 kmh ESE 3.5 mph5.6 kmh 29.75 in1007.5 mb - 0.00 in0.0 mm 0.00 in0.0 mm
02:00 AM 74.4°F23.6°C 71.6°F22.0°C 91% 2.3 mph SE3.7 kmh SE 3.5 mph5.6 kmh 29.75 in1007.5 mb - 0.00 in0.0 mm 0.00 in0.0 mm
01:50 AM 74.5°F23.6°C 71.7°F22.1°C 91% 2.3 mph ESE3.7 kmh ESE 3.5 mph5.6 kmh 29.75 in1007.5 mb - 0.00 in0.0 mm 0.00 in0.0 mm
01:40 AM 74.5°F23.6°C 71.7°F22.1°C 91% 3.5 mph SE5.6 kmh SE 4.6 mph7.4 kmh 29.76 in1007.8 mb - 0.00 in0.0 mm 0.00 in0.0 mm
01:30 AM 74.7°F23.7°C 71.9°F22.2°C 91% 3.5 mph SE5.6 kmh SE 8.1 mph13.0 kmh 29.75 in1007.5 mb - 0.00 in0.0 mm 0.00 in0.0 mm
01:20 AM 74.7°F23.7°C 71.6°F22.0°C 90% 2.3 mph SE3.7 kmh SE 6.9 mph11.1 kmh 29.75 in1007.5 mb - 0.00 in0.0 mm 0.00 in0.0 mm
01:10 AM 74.8°F23.8°C 71.7°F22.1°C 90% 3.5 mph SE5.6 kmh SE 4.6 mph7.4 kmh 29.76 in1007.8 mb - 0.00 in0.0 mm 0.00 in0.0 mm
01:00 AM 75.0°F23.9°C 71.9°F22.2°C 90% 3.5 mph S5.6 kmh S 4.6 mph7.4 kmh 29.76 in1007.8 mb - 0.00 in0.0 mm 0.00 in0.0 mm
12:50 AM 75.2°F24.0°C 71.7°F22.1°C 89% 3.5 mph SE5.6 kmh SE 3.5 mph5.6 kmh 29.77 in1008.1 mb - 0.00 in0.0 mm 0.00 in0.0 mm
12:40 AM 75.2°F24.0°C 71.7°F22.1°C 89% 2.3 mph SE3.7 kmh SE 4.6 mph7.4 kmh 29.77 in1008.1 mb - 0.00 in0.0 mm 0.00 in0.0 mm
12:30 AM 75.3°F24.1°C 71.8°F22.1°C 89% 3.5 mph SE5.6 kmh SE 5.8 mph9.3 kmh 29.77 in1008.1 mb - 0.00 in0.0 mm 0.00 in0.0 mm
12:20 AM 75.5°F24.2°C 72.1°F22.3°C 89% 3.5 mph ESE5.6 kmh ESE 3.5 mph5.6 kmh 29.77 in1008.1 mb - 0.00 in0.0 mm 0.00 in0.0 mm
12:10 AM 75.7°F24.3°C 72.2°F22.3°C 89% 2.3 mph E3.7 kmh E 3.5 mph5.6 kmh 29.77 in1008.1 mb - 0.00 in0.0 mm 0.00 in0.0 mm
12:00 AM 75.9°F24.4°C 72.4°F22.4°C 89% 2.3 mph ESE3.7 kmh ESE 3.5 mph5.6 kmh 29.77 in1008.1 mb - 0.00 in0.0 mm 0.00 in0.0 mm